Leavenworth, Indiana
Current Conditions -  °F | °C
As of 4:58 PM on Thursday 23 Oct 2014 (Local Time) from KFTK Reporting Station
Clear Clear  
Wind Chill: 62°   Ceiling: Unl
Heat Index: 62°   Visibility: 10mi
Dew Point: 41°   Wind: 2mph
Humidity: 47%   Direction: 10°N
Pressure: 30.12"   Gusts: NA
Location:  38.2°N, 86.34°W
Report Text: KFTK 232058Z AUTO 01002KT 10SM CLR 17/05 A3012 RMK AO2 RAE1956B2052E2054DZB1956E2000B2054 SLP203 P0000 60000 T01670052 56022
Loading
Personal Weather Stations






























Interactive Weather Map
Tropical Storm Tracking
New forecast layout! Learn more

10-Day Weather Forecast

Advertisements
Track Severe Weather on mobile